Avondale, CO

1:06 PM MDT on May 30, 2015 (GMT -0600)
KC0DNN Pueblo Mesa | | Change Station
CLOSE
Current Station
Personal Weather Station
Location: Pueblo, CO
Elevation: 4718 ft
Nearby Weather Stations
Active Advisory: Flood Warning

Elev 4718 ft 38.21 °N, 104.44 °W | Updated 10 minutes ago

Mostly Cloudy
Mostly Cloudy
68.5 °F
Feels Like 68.5 °F
N
6.0
Wind Variable Wind from North

Today
High -- | Low -- °F
--% Chance of Precip.
Yesterday
High -- | Low -- °F
Precip. -- in
5:37 AM 8:13 PM
Waxing Gibbous, 91% visible
Pressure 30.16 in
Visibility 10.0 miles
Clouds Mostly Cloudy 3300 ft
Dew Point 51 °F
Humidity 54%
Rainfall -999.00 in
Snow Depth Not available.
UV 7 out of 12
Pollen 5.00 out of 12
Air Quality Not available.
Flu Activity Sporadic
METAR KPUB 301853Z AUTO 10009KT 10SM BKN033 18/11 A3026 RMK AO2 SLP211 T01780111

More Conditions Fewer Conditions

Pressure 30.16 in
Visibility 10.0 miles
Clouds Mostly Cloudy 3300 ft
Dew Point 51 °F
Humidity 54%
Rainfall -999.00 in
Snow Depth Not available.
UV 7 out of 12
Pollen 5.00 out of 12
Air Quality Not available.
Flu Activity Sporadic
METAR KPUB 301853Z AUTO 10009KT 10SM BKN033 18/11 A3026 RMK AO2 SLP211 T01780111

More Conditions Fewer Conditions

10-Day Weather Forecast

Almanac

Astronomy

May. 30, 2015 Rise Set
Actual Time
Civil Twilight
Nautical Twilight
Astronomical Twilight
Moon
Length of Visible Light
Length of Day
Tomorrow will be .
, % of the Moon is Illuminated

Today's Extremes

State Highs State Lows

Community

WunderPhotos

Upload Photos

1,825,618 photos uploaded!

WunderBlogs® & News

Nearby

Air Quality

  Air Quality AQ Index Pollutant
Not available.

Snow Depth

Station Depth Elevation

Earthquake Activity

City Distance Mag. Time & Date
Minimum magnitude displayed is 2.5.

Coastal Water Temperatures

Place Temperature

Stations

Nearby Weather Stations

Station Location Temp. Windchill Dew Point Humidity Wind Precip. Elev Updated Type
                   
Flood Warning
Statement as of 8:04 AM MDT on May 30, 2015

The Flood Warning continues for
the Arkansas River near Avondale.
* Until Sunday afternoon... or until the warning is cancelled.
* At 7:15 am Saturday the stage was 7.5 feet.
* Flood stage is 7.0 feet.
* Minor flooding is occurring and minor flooding is forecast.
* Forecast... the river will continue rising to near 7.7 feet by early
this afternoon. The river will fall below flood stage early
tomorrow morning.
* Impact... at 7.0 feet... minor lowland flooding occurs near Avondale.


Lat... Lon 3829 10441 3829 10434 3827 10425 3820 10425
      3822 10434 3822 10441